Time,TemperatureF,DewpointF,PressureIn,WindDirection,WindDirectionDegrees,WindSpeedMPH,WindSpeedGustMPH,Humidity,HourlyPrecipIn,Conditions,Clouds,dailyrainin,SoftwareType,DateUTC
2013-08-28 00:01:00,78.6,70.7,30.01,ENE,68,0.0,0.0,77,0.00,,,0.00,WUHU216HW,2013-08-28 04:01:00,
2013-08-28 00:02:00,78.6,70.7,30.01,ENE,68,0.0,0.0,77,0.00,,,0.00,WUHU216HW,2013-08-28 04:02:00,
2013-08-28 00:07:00,78.6,70.7,30.01,ENE,68,0.0,0.0,77,0.00,,,0.00,WUHU216HW,2013-08-28 04:07:00,
2013-08-28 00:12:00,78.6,71.1,30.01,ENE,68,0.0,0.0,78,0.00,,,0.00,WUHU216HW,2013-08-28 04:12:00,
2013-08-28 00:17:00,78.6,71.1,30.01,ENE,68,0.0,0.0,78,0.00,,,0.00,WUHU216HW,2013-08-28 04:17:00,
2013-08-28 00:22:00,78.4,70.9,30.01,ENE,68,0.0,0.0,78,0.00,,,0.00,WUHU216HW,2013-08-28 04:22:00,
2013-08-28 00:27:00,78.4,70.9,30.01,ENE,68,0.0,0.0,78,0.00,,,0.00,WUHU216HW,2013-08-28 04:27:00,
2013-08-28 00:32:00,78.4,70.9,30.01,ENE,68,0.0,0.0,78,0.00,,,0.00,WUHU216HW,2013-08-28 04:32:00,
2013-08-28 00:37:00,78.2,70.8,30.00,ENE,68,0.0,0.0,78,0.00,,,0.00,WUHU216HW,2013-08-28 04:37:00,
2013-08-28 00:42:00,78.0,70.6,30.00,ENE,68,0.0,0.0,78,0.00,,,0.00,WUHU216HW,2013-08-28 04:42:00,
2013-08-28 00:47:00,78.0,70.6,30.00,ENE,68,0.0,0.0,78,0.00,,,0.00,WUHU216HW,2013-08-28 04:47:00,
2013-08-28 00:52:00,78.0,70.6,30.00,ENE,68,0.0,0.0,78,0.00,,,0.00,WUHU216HW,2013-08-28 04:52:00,
2013-08-28 00:57:00,77.9,70.4,30.00,ENE,68,0.0,0.0,78,0.00,,,0.00,WUHU216HW,2013-08-28 04:57:00,
2013-08-28 01:02:00,77.9,70.8,30.00,ENE,68,0.0,0.0,79,0.00,,,0.00,WUHU216HW,2013-08-28 05:02:00,
2013-08-28 01:07:00,77.7,70.6,30.00,ENE,68,0.0,0.0,79,0.00,,,0.00,WUHU216HW,2013-08-28 05:07:00,
2013-08-28 01:12:00,77.7,70.6,30.00,ENE,68,0.0,0.0,79,0.00,,,0.00,WUHU216HW,2013-08-28 05:12:00,
2013-08-28 01:17:00,77.5,70.4,29.99,ENE,68,0.0,0.0,79,0.00,,,0.00,WUHU216HW,2013-08-28 05:17:00,
2013-08-28 01:22:00,77.5,70.4,29.99,ENE,68,0.0,0.0,79,0.00,,,0.00,WUHU216HW,2013-08-28 05:22:00,
2013-08-28 01:27:00,77.5,70.4,29.99,ENE,68,0.0,0.0,79,0.00,,,0.00,WUHU216HW,2013-08-28 05:27:00,
2013-08-28 01:32:00,77.5,70.4,29.99,ENE,68,0.0,0.0,79,0.00,,,0.00,WUHU216HW,2013-08-28 05:32:00,
2013-08-28 01:37:00,77.3,70.3,29.99,ENE,68,0.0,0.0,79,0.00,,,0.00,WUHU216HW,2013-08-28 05:37:00,
2013-08-28 01:42:00,77.3,70.3,29.99,ENE,68,0.0,0.0,79,0.00,,,0.00,WUHU216HW,2013-08-28 05:42:00,
2013-08-28 01:47:00,77.1,70.1,29.99,ENE,68,0.0,0.0,79,0.00,,,0.00,WUHU216HW,2013-08-28 05:47:00,
2013-08-28 01:52:00,77.1,70.5,29.99,ENE,68,3.5,3.5,80,0.00,,,0.00,WUHU216HW,2013-08-28 05:52:00,
2013-08-28 01:57:00,77.1,70.5,29.98,ENE,68,1.7,3.5,80,0.00,,,0.00,WUHU216HW,2013-08-28 05:57:00,
2013-08-28 02:02:00,77.1,70.5,29.98,ENE,68,1.1,1.7,80,0.00,,,0.00,WUHU216HW,2013-08-28 06:02:00,
2013-08-28 02:07:00,77.0,70.3,29.98,ENE,68,0.4,2.2,80,0.00,,,0.00,WUHU216HW,2013-08-28 06:07:00,
2013-08-28 02:12:00,76.8,70.1,29.98,ENE,68,1.5,2.4,80,0.00,,,0.00,WUHU216HW,2013-08-28 06:12:00,
2013-08-28 02:17:00,76.8,70.1,29.98,ENE,68,1.1,2.4,80,0.00,,,0.00,WUHU216HW,2013-08-28 06:17:00,
2013-08-28 02:22:00,76.8,70.1,29.98,ENE,68,0.0,2.2,80,0.00,,,0.00,WUHU216HW,2013-08-28 06:22:00,
2013-08-28 02:27:00,76.8,70.1,29.98,ENE,68,0.0,1.7,80,0.00,,,0.00,WUHU216HW,2013-08-28 06:27:00,
2013-08-28 02:32:00,76.8,70.1,29.98,ENE,68,0.0,2.6,80,0.00,,,0.00,WUHU216HW,2013-08-28 06:32:00,
2013-08-28 02:37:00,76.8,70.1,29.98,ENE,68,0.4,2.9,80,0.00,,,0.00,WUHU216HW,2013-08-28 06:37:00,
2013-08-28 02:42:00,76.8,70.1,29.97,ENE,68,0.6,2.9,80,0.00,,,0.00,WUHU216HW,2013-08-28 06:42:00,
2013-08-28 02:47:00,76.8,70.1,29.97,ENE,68,2.9,2.9,80,0.00,,,0.00,WUHU216HW,2013-08-28 06:47:00,
2013-08-28 02:52:00,76.8,70.1,29.97,ENE,68,2.4,2.9,80,0.00,,,0.00,WUHU216HW,2013-08-28 06:52:00,
2013-08-28 02:57:00,76.8,70.1,29.97,ENE,68,0.0,2.6,80,0.00,,,0.00,WUHU216HW,2013-08-28 06:57:00,
2013-08-28 03:02:00,76.6,70.0,29.97,ENE,68,1.1,2.6,80,0.00,,,0.00,WUHU216HW,2013-08-28 07:02:00,
2013-08-28 03:07:00,76.6,70.3,29.96,ENE,68,1.5,3.3,81,0.00,,,0.00,WUHU216HW,2013-08-28 07:07:00,
2013-08-28 03:12:00,76.6,70.3,29.96,ENE,68,1.7,3.3,81,0.00,,,0.00,WUHU216HW,2013-08-28 07:12:00,
2013-08-28 03:17:00,76.4,70.1,29.96,ENE,68,1.1,2.6,81,0.00,,,0.00,WUHU216HW,2013-08-28 07:17:00,
2013-08-28 03:22:00,76.2,70.0,29.96,ENE,68,3.1,3.1,81,0.00,,,0.00,WUHU216HW,2013-08-28 07:22:00,
2013-08-28 03:27:00,76.2,70.0,29.96,ENE,68,1.3,3.1,81,0.00,,,0.00,WUHU216HW,2013-08-28 07:27:00,
2013-08-28 03:32:00,76.2,70.0,29.96,ENE,68,0.0,2.2,81,0.00,,,0.00,WUHU216HW,2013-08-28 07:32:00,
2013-08-28 03:37:00,76.1,69.8,29.96,ENE,68,0.0,0.0,81,0.00,,,0.00,WUHU216HW,2013-08-28 07:37:00,
2013-08-28 03:42:00,76.1,69.8,29.96,ENE,68,0.0,0.0,81,0.00,,,0.00,WUHU216HW,2013-08-28 07:42:00,
2013-08-28 03:47:00,76.1,69.8,29.96,ENE,68,0.0,0.0,81,0.00,,,0.00,WUHU216HW,2013-08-28 07:47:00,
2013-08-28 03:52:00,76.1,69.8,29.96,ENE,68,0.0,0.0,81,0.00,,,0.00,WUHU216HW,2013-08-28 07:52:00,
2013-08-28 03:57:00,75.9,69.7,29.96,ENE,68,0.0,0.0,81,0.00,,,0.00,WUHU216HW,2013-08-28 07:57:00,
2013-08-28 04:02:00,75.9,70.0,29.95,ENE,68,0.0,0.0,82,0.00,,,0.00,WUHU216HW,2013-08-28 08:02:00,
2013-08-28 04:07:00,75.7,69.8,29.96,ENE,68,0.0,0.0,82,0.00,,,0.00,WUHU216HW,2013-08-28 08:07:00,
2013-08-28 04:12:00,75.7,69.8,29.96,ENE,68,0.0,0.0,82,0.00,,,0.00,WUHU216HW,2013-08-28 08:12:00,
2013-08-28 04:17:00,75.5,69.7,29.96,ENE,68,0.0,0.0,82,0.00,,,0.00,WUHU216HW,2013-08-28 08:17:00,
2013-08-28 04:22:00,75.3,69.9,29.96,ENE,68,0.0,0.0,83,0.00,,,0.00,WUHU216HW,2013-08-28 08:22:00,
2013-08-28 04:27:00,75.3,69.9,29.96,ENE,68,0.0,0.0,83,0.00,,,0.00,WUHU216HW,2013-08-28 08:27:00,
2013-08-28 04:32:00,75.3,69.9,29.96,ENE,68,0.0,0.0,83,0.00,,,0.00,WUHU216HW,2013-08-28 08:32:00,
2013-08-28 04:37:00,75.0,69.9,29.96,ENE,68,0.0,0.0,84,0.00,,,0.00,WUHU216HW,2013-08-28 08:37:00,
2013-08-28 04:42:00,75.0,69.9,29.96,ENE,68,0.0,0.6,84,0.00,,,0.00,WUHU216HW,2013-08-28 08:42:00,
2013-08-28 04:47:00,75.0,69.9,29.96,ENE,68,0.0,0.8,84,0.00,,,0.00,WUHU216HW,2013-08-28 08:47:00,
2013-08-28 04:52:00,75.0,70.2,29.96,ENE,68,0.0,0.8,85,0.00,,,0.00,WUHU216HW,2013-08-28 08:52:00,
2013-08-28 04:57:00,75.0,70.2,29.96,ENE,68,0.0,0.4,85,0.00,,,0.00,WUHU216HW,2013-08-28 08:57:00,
2013-08-28 05:02:00,75.0,70.2,29.96,ENE,68,0.0,0.4,85,0.00,,,0.00,WUHU216HW,2013-08-28 09:02:00,
2013-08-28 05:06:00,74.8,70.0,29.96,ENE,68,0.0,0.0,85,0.00,,,0.00,WUHU216HW,2013-08-28 09:06:00,
2013-08-28 05:11:00,74.8,70.0,29.96,ENE,68,0.0,0.0,85,0.00,,,0.00,WUHU216HW,2013-08-28 09:11:00,
2013-08-28 05:16:00,74.8,70.0,29.96,ENE,68,0.0,0.0,85,0.00,,,0.00,WUHU216HW,2013-08-28 09:16:00,
2013-08-28 05:21:00,74.8,70.0,29.96,ENE,68,0.0,0.0,85,0.00,,,0.00,WUHU216HW,2013-08-28 09:21:00,
2013-08-28 05:26:00,75.0,70.2,29.96,ENE,68,0.0,0.0,85,0.00,,,0.00,WUHU216HW,2013-08-28 09:26:00,
2013-08-28 05:31:00,75.0,70.2,29.96,ENE,68,0.0,0.0,85,0.00,,,0.00,WUHU216HW,2013-08-28 09:31:00,
2013-08-28 05:32:00,75.0,70.2,29.96,ENE,68,0.0,0.0,85,0.00,,,0.00,WUHU216HW,2013-08-28 09:32:00,
2013-08-28 05:34:00,74.8,70.0,29.96,ENE,68,0.0,0.0,85,0.00,,,0.00,WUHU216HW,2013-08-28 09:34:00,
2013-08-28 05:39:00,74.8,70.0,29.96,ENE,68,0.0,0.0,85,0.00,,,0.00,WUHU216HW,2013-08-28 09:39:00,
2013-08-28 05:44:00,74.6,70.0,29.97,ENE,68,0.0,0.0,85,0.00,,,0.00,WUHU216HW,2013-08-28 09:44:00,
2013-08-28 05:49:00,74.4,69.7,29.97,ENE,68,0.0,0.0,85,0.00,,,0.00,WUHU216HW,2013-08-28 09:49:00,
2013-08-28 05:54:00,74.1,69.0,29.97,ENE,68,0.0,0.0,84,0.00,,,0.00,WUHU216HW,2013-08-28 09:54:00,
2013-08-28 05:59:00,73.9,69.1,29.97,ENE,68,0.0,0.0,85,0.00,,,0.00,WUHU216HW,2013-08-28 09:59:00,
2013-08-28 06:04:00,73.9,69.1,29.97,ENE,68,0.0,0.0,85,0.00,,,0.00,WUHU216HW,2013-08-28 10:04:00,
2013-08-28 06:09:00,73.9,69.1,29.97,ENE,68,0.0,0.0,85,0.00,,,0.00,WUHU216HW,2013-08-28 10:09:00,
2013-08-28 06:14:00,73.7,68.9,29.97,ENE,68,0.0,0.0,85,0.00,,,0.00,WUHU216HW,2013-08-28 10:14:00,
2013-08-28 06:19:00,73.9,68.9,29.97,ENE,68,0.0,0.0,85,0.00,,,0.00,WUHU216HW,2013-08-28 10:19:00,
2013-08-28 06:24:00,73.9,69.1,29.97,ENE,68,0.0,0.0,85,0.00,,,0.00,WUHU216HW,2013-08-28 10:24:00,
2013-08-28 06:29:00,73.7,68.9,29.97,ENE,68,0.0,0.0,85,0.00,,,0.00,WUHU216HW,2013-08-28 10:29:00,
2013-08-28 06:34:00,73.7,68.9,29.97,ENE,68,0.0,0.0,85,0.00,,,0.00,WUHU216HW,2013-08-28 10:34:00,
2013-08-28 06:39:00,73.7,69.3,29.97,ENE,68,0.0,0.0,86,0.00,,,0.00,WUHU216HW,2013-08-28 10:39:00,
2013-08-28 06:44:00,73.7,69.3,29.97,ENE,68,0.0,0.0,86,0.00,,,0.00,WUHU216HW,2013-08-28 10:44:00,
2013-08-28 06:49:00,73.5,69.1,29.98,ENE,68,1.1,1.1,86,0.00,,,0.00,WUHU216HW,2013-08-28 10:49:00,
2013-08-28 06:54:00,73.5,69.4,29.97,ENE,68,0.0,1.1,87,0.00,,,0.00,WUHU216HW,2013-08-28 10:54:00,
2013-08-28 06:59:00,73.5,69.4,29.98,ENE,68,0.0,0.0,87,0.00,,,0.00,WUHU216HW,2013-08-28 10:59:00,
2013-08-28 07:04:00,73.7,69.6,29.97,ENE,68,0.0,0.0,87,0.00,,,0.00,WUHU216HW,2013-08-28 11:04:00,
2013-08-28 07:09:00,73.7,69.6,29.98,ENE,68,0.0,0.0,87,0.00,,,0.00,WUHU216HW,2013-08-28 11:09:00,
2013-08-28 07:14:00,73.9,69.8,29.98,ENE,68,0.0,0.0,87,0.00,,,0.00,WUHU216HW,2013-08-28 11:14:00,
2013-08-28 07:19:00,73.9,69.8,29.98,ENE,68,0.0,0.0,87,0.00,,,0.00,WUHU216HW,2013-08-28 11:19:00,
2013-08-28 07:24:00,73.9,69.8,29.98,ENE,68,0.0,0.0,87,0.00,,,0.00,WUHU216HW,2013-08-28 11:24:00,
2013-08-28 07:29:00,73.9,69.8,29.98,ENE,68,1.5,1.5,87,0.00,,,0.00,WUHU216HW,2013-08-28 11:29:00,
2013-08-28 07:34:00,74.1,70.0,29.98,ENE,68,2.4,2.4,87,0.00,,,0.00,WUHU216HW,2013-08-28 11:34:00,
2013-08-28 07:39:00,74.1,70.0,29.99,ENE,68,0.0,2.4,87,0.00,,,0.00,WUHU216HW,2013-08-28 11:39:00,
2013-08-28 07:44:00,74.1,70.0,29.99,ENE,68,0.0,0.0,87,0.00,,,0.00,WUHU216HW,2013-08-28 11:44:00,
2013-08-28 07:49:00,74.3,70.5,29.99,ENE,68,0.0,0.0,88,0.00,,,0.00,WUHU216HW,2013-08-28 11:49:00,
2013-08-28 07:54:00,74.4,70.7,29.99,ENE,68,0.0,0.0,88,0.00,,,0.00,WUHU216HW,2013-08-28 11:54:00,
2013-08-28 07:59:00,74.4,70.7,29.99,ENE,68,2.0,2.0,88,0.00,,,0.00,WUHU216HW,2013-08-28 11:59:00,
2013-08-28 08:04:00,74.8,71.0,29.99,ENE,68,2.6,3.8,88,0.00,,,0.00,WUHU216HW,2013-08-28 12:04:00,
2013-08-28 08:09:00,74.8,71.0,29.99,ENE,68,3.1,3.8,88,0.00,,,0.00,WUHU216HW,2013-08-28 12:09:00,
2013-08-28 08:14:00,75.0,71.2,29.99,ENE,68,2.2,3.8,88,0.00,,,0.00,WUHU216HW,2013-08-28 12:14:00,
2013-08-28 08:19:00,75.0,71.2,29.99,NE,45,1.7,3.3,88,0.00,,,0.00,WUHU216HW,2013-08-28 12:19:00,
2013-08-28 08:24:00,75.2,71.4,29.99,ENE,68,1.5,3.3,88,0.00,,,0.00,WUHU216HW,2013-08-28 12:24:00,
2013-08-28 08:28:00,75.3,71.6,29.99,East,90,1.5,3.1,88,0.00,,,0.00,WUHU216HW,2013-08-28 12:28:00,
2013-08-28 08:33:00,75.5,71.7,29.99,ENE,68,4.0,4.6,88,0.00,,,0.00,WUHU216HW,2013-08-28 12:33:00,
2013-08-28 08:38:00,75.7,71.9,30.00,ENE,68,3.1,4.6,88,0.00,,,0.00,WUHU216HW,2013-08-28 12:38:00,
2013-08-28 08:43:00,75.9,71.7,30.00,ENE,68,2.2,3.8,87,0.00,,,0.00,WUHU216HW,2013-08-28 12:43:00,
2013-08-28 08:48:00,75.9,71.9,30.00,NE,45,2.6,3.8,87,0.00,,,0.00,WUHU216HW,2013-08-28 12:48:00,
2013-08-28 08:53:00,76.2,72.1,30.00,ENE,68,2.6,4.0,87,0.00,,,0.00,WUHU216HW,2013-08-28 12:53:00,
2013-08-28 08:58:00,76.4,71.9,30.00,ENE,68,3.1,4.0,86,0.00,,,0.00,WUHU216HW,2013-08-28 12:58:00,
2013-08-28 09:03:00,76.8,72.5,30.00,ENE,68,3.5,4.0,87,0.00,,,0.00,WUHU216HW,2013-08-28 13:03:00,
2013-08-28 09:08:00,77.0,72.8,30.00,ENE,68,4.9,7.1,87,0.00,,,0.00,WUHU216HW,2013-08-28 13:08:00,
2013-08-28 09:13:00,77.1,73.0,30.00,East,90,3.1,7.1,87,0.00,,,0.00,WUHU216HW,2013-08-28 13:13:00,
2013-08-28 09:18:00,77.5,73.0,30.00,ENE,68,3.8,4.6,86,0.00,,,0.00,WUHU216HW,2013-08-28 13:18:00,
2013-08-28 09:23:00,77.7,73.2,30.00,East,90,2.0,4.0,86,0.00,,,0.00,WUHU216HW,2013-08-28 13:23:00,
2013-08-28 09:28:00,77.9,73.4,30.01,ENE,68,2.9,5.5,86,0.00,,,0.00,WUHU216HW,2013-08-28 13:28:00,
2013-08-28 09:33:00,78.0,73.5,30.01,NE,45,4.4,5.5,86,0.00,,,0.00,WUHU216HW,2013-08-28 13:33:00,
2013-08-28 09:38:00,78.4,73.9,30.01,ENE,68,0.0,6.9,86,0.00,,,0.00,WUHU216HW,2013-08-28 13:38:00,
2013-08-28 09:43:00,78.6,74.1,30.01,ENE,68,1.7,6.9,86,0.00,,,0.00,WUHU216HW,2013-08-28 13:43:00,
2013-08-28 09:48:00,78.9,74.4,30.01,NE,45,6.4,6.4,86,0.00,,,0.00,WUHU216HW,2013-08-28 13:48:00,
2013-08-28 09:53:00,79.1,74.6,30.01,East,90,4.0,6.4,86,0.00,,,0.00,WUHU216HW,2013-08-28 13:53:00,
2013-08-28 09:58:00,79.5,74.9,30.01,ENE,68,2.6,5.5,86,0.00,,,0.00,WUHU216HW,2013-08-28 13:58:00,
2013-08-28 10:03:00,79.7,74.7,30.01,ENE,68,0.4,3.3,85,0.00,,,0.00,WUHU216HW,2013-08-28 14:03:00,
2013-08-28 10:08:00,79.8,75.1,30.01,NW,315,1.1,3.1,85,0.00,,,0.00,WUHU216HW,2013-08-28 14:08:00,
2013-08-28 10:13:00,80.2,75.3,30.01,ENE,68,2.9,5.8,85,0.00,,,0.00,WUHU216HW,2013-08-28 14:13:00,
2013-08-28 10:18:00,80.4,75.4,30.02,SSE,158,0.8,5.8,85,0.00,,,0.00,WUHU216HW,2013-08-28 14:18:00,
2013-08-28 10:23:00,80.7,75.8,30.02,ENE,68,0.4,5.1,85,0.00,,,0.00,WUHU216HW,2013-08-28 14:23:00,
2013-08-28 10:28:00,80.9,75.8,30.02,NE,45,5.5,7.1,84,0.00,,,0.00,WUHU216HW,2013-08-28 14:28:00,
2013-08-28 10:33:00,81.5,76.0,30.02,East,90,4.6,7.1,83,0.00,,,0.00,WUHU216HW,2013-08-28 14:33:00,
2013-08-28 10:38:00,82.0,76.0,30.02,East,90,4.2,6.0,82,0.00,,,0.00,WUHU216HW,2013-08-28 14:38:00,
2013-08-28 10:43:00,82.2,76.2,30.02,East,90,3.3,5.3,82,0.00,,,0.00,WUHU216HW,2013-08-28 14:43:00,
2013-08-28 10:48:00,82.7,76.7,30.02,NE,45,1.7,5.3,82,0.00,,,0.00,WUHU216HW,2013-08-28 14:48:00,
2013-08-28 10:53:00,83.1,77.0,30.02,SE,135,2.2,4.6,82,0.00,,,0.00,WUHU216HW,2013-08-28 14:53:00,
2013-08-28 10:58:00,83.4,76.7,30.03,South,180,1.7,4.0,80,0.00,,,0.00,WUHU216HW,2013-08-28 14:58:00,
2013-08-28 11:03:00,83.8,76.6,30.02,East,90,3.1,4.6,79,0.00,,,0.00,WUHU216HW,2013-08-28 15:03:00,
2013-08-28 11:08:00,83.8,76.7,30.02,ENE,68,2.6,5.5,79,0.00,,,0.00,WUHU216HW,2013-08-28 15:08:00,
2013-08-28 11:13:00,84.0,75.9,30.02,East,90,4.9,5.5,77,0.00,,,0.00,WUHU216HW,2013-08-28 15:13:00,
2013-08-28 11:18:00,84.0,75.5,30.03,ENE,68,0.0,4.9,76,0.00,,,0.00,WUHU216HW,2013-08-28 15:18:00,
2013-08-28 11:23:00,84.0,75.5,30.03,SSE,158,3.1,4.9,76,0.00,,,0.00,WUHU216HW,2013-08-28 15:23:00,
2013-08-28 11:28:00,84.2,76.1,30.03,ENE,68,0.0,4.9,77,0.00,,,0.00,WUHU216HW,2013-08-28 15:28:00,
2013-08-28 11:33:00,84.3,76.3,30.03,NE,45,3.1,6.0,77,0.00,,,0.00,WUHU216HW,2013-08-28 15:33:00,
2013-08-28 11:38:00,84.3,76.3,30.03,NE,45,3.5,6.0,77,0.00,,,0.00,WUHU216HW,2013-08-28 15:38:00,
2013-08-28 11:43:00,84.3,75.9,30.02,ESE,113,2.4,4.0,76,0.00,,,0.00,WUHU216HW,2013-08-28 15:43:00,
2013-08-28 11:48:00,84.7,76.7,30.03,SSE,158,0.0,5.1,77,0.00,,,0.00,WUHU216HW,2013-08-28 15:48:00,
2013-08-28 11:54:00,84.9,76.4,30.03,East,90,2.6,5.1,76,0.00,,,0.00,WUHU216HW,2013-08-28 15:54:00,
2013-08-28 11:59:00,85.2,76.4,30.02,NE,45,3.3,6.4,75,0.00,,,0.00,WUHU216HW,2013-08-28 15:59:00,
2013-08-28 12:04:00,85.6,77.2,30.02,North,0,2.0,6.4,76,0.00,,,0.00,WUHU216HW,2013-08-28 16:04:00,
2013-08-28 12:09:00,85.8,77.0,30.02,SE,135,1.3,6.4,75,0.00,,,0.00,WUHU216HW,2013-08-28 16:09:00,
2013-08-28 12:14:00,86.0,76.7,30.02,SSW,203,0.0,6.4,74,0.00,,,0.00,WUHU216HW,2013-08-28 16:14:00,
2013-08-28 12:19:00,86.1,76.9,30.01,South,180,3.1,5.8,74,0.00,,,0.00,WUHU216HW,2013-08-28 16:19:00,
2013-08-28 12:24:00,86.5,77.2,30.01,SW,225,5.1,5.1,74,0.00,,,0.00,WUHU216HW,2013-08-28 16:24:00,
2013-08-28 12:29:00,86.7,77.0,30.01,West,270,1.3,5.1,73,0.00,,,0.00,WUHU216HW,2013-08-28 16:29:00,
2013-08-28 12:34:00,87.0,77.3,30.00,ENE,68,4.4,5.1,73,0.00,,,0.00,WUHU216HW,2013-08-28 16:34:00,
2013-08-28 12:39:00,87.6,77.4,30.00,ENE,68,3.3,5.1,72,0.00,,,0.00,WUHU216HW,2013-08-28 16:39:00,
2013-08-28 12:44:00,87.8,76.8,30.00,NE,45,5.5,5.5,70,0.00,,,0.00,WUHU216HW,2013-08-28 16:44:00,
2013-08-28 12:49:00,87.8,75.9,30.00,East,90,2.0,5.5,68,0.00,,,0.00,WUHU216HW,2013-08-28 16:49:00,
2013-08-28 12:54:00,87.6,76.1,30.00,NNE,23,7.8,7.8,69,0.00,,,0.00,WUHU216HW,2013-08-28 16:54:00,
2013-08-28 12:59:00,88.1,77.1,30.00,NE,45,3.1,7.8,70,0.00,,,0.00,WUHU216HW,2013-08-28 16:59:00,
2013-08-28 13:04:00,88.5,76.6,29.99,NNE,23,3.8,5.8,68,0.00,,,0.00,WUHU216HW,2013-08-28 17:04:00,
2013-08-28 13:09:00,88.7,75.8,29.99,NNW,338,3.8,4.9,66,0.00,,,0.00,WUHU216HW,2013-08-28 17:09:00,
2013-08-28 13:14:00,89.0,77.1,29.99,ENE,68,4.2,5.1,68,0.00,,,0.00,WUHU216HW,2013-08-28 17:14:00,
2013-08-28 13:19:00,89.2,76.5,29.99,NE,45,4.4,5.5,66,0.00,,,0.00,WUHU216HW,2013-08-28 17:19:00,
2013-08-28 13:24:00,89.2,75.0,29.99,NNE,23,4.4,5.5,63,0.00,,,0.00,WUHU216HW,2013-08-28 17:24:00,
2013-08-28 13:29:00,88.7,74.4,29.98,NNW,338,5.1,5.5,63,0.00,,,0.00,WUHU216HW,2013-08-28 17:29:00,
2013-08-28 13:34:00,88.3,74.6,29.98,North,0,3.3,5.1,64,0.00,,,0.00,WUHU216HW,2013-08-28 17:34:00,
2013-08-28 13:39:00,87.9,74.2,29.98,NE,45,6.0,6.0,64,0.00,,,0.00,WUHU216HW,2013-08-28 17:39:00,
2013-08-28 13:44:00,87.6,73.0,29.98,NNE,23,6.2,6.7,62,0.00,,,0.00,WUHU216HW,2013-08-28 17:44:00,
2013-08-28 13:49:00,87.6,73.0,29.97,ENE,68,5.1,7.1,62,0.00,,,0.00,WUHU216HW,2013-08-28 17:49:00,
2013-08-28 13:54:00,87.6,73.0,29.97,NNE,23,2.2,7.1,62,0.00,,,0.00,WUHU216HW,2013-08-28 17:54:00,
2013-08-28 13:59:00,87.6,73.0,29.97,North,0,2.4,4.0,62,0.00,,,0.00,WUHU216HW,2013-08-28 17:59:00,
2013-08-28 14:04:00,87.6,73.9,29.97,NE,45,2.2,4.6,64,0.00,,,0.00,WUHU216HW,2013-08-28 18:04:00,
2013-08-28 14:09:00,88.1,73.5,29.98,NW,315,0.0,4.6,62,0.00,,,0.00,WUHU216HW,2013-08-28 18:09:00,
2013-08-28 14:14:00,88.1,73.5,29.97,North,0,1.5,4.4,62,0.00,,,0.00,WUHU216HW,2013-08-28 18:14:00,
2013-08-28 14:19:00,87.9,73.8,29.97,NNE,23,4.9,5.5,63,0.00,,,0.00,WUHU216HW,2013-08-28 18:19:00,
2013-08-28 14:24:00,87.4,72.8,29.98,NE,45,5.8,6.0,62,0.00,,,0.00,WUHU216HW,2013-08-28 18:24:00,
2013-08-28 14:29:00,87.0,72.5,29.98,North,0,1.3,6.0,62,0.00,,,0.00,WUHU216HW,2013-08-28 18:29:00,
2013-08-28 14:34:00,86.5,72.8,29.98,NNE,23,1.1,3.1,64,0.00,,,0.00,WUHU216HW,2013-08-28 18:34:00,
2013-08-28 14:39:00,86.3,72.7,29.98,NE,45,2.6,4.6,64,0.00,,,0.00,WUHU216HW,2013-08-28 18:39:00,
2013-08-28 14:44:00,86.1,73.0,29.99,ENE,68,6.0,6.0,65,0.00,,,0.00,WUHU216HW,2013-08-28 18:44:00,
2013-08-28 14:49:00,85.8,74.0,29.99,ENE,68,1.1,6.2,67,0.00,,,0.00,WUHU216HW,2013-08-28 18:49:00,
2013-08-28 14:54:00,85.2,74.0,29.99,South,180,2.6,6.2,69,0.00,,,0.00,WUHU216HW,2013-08-28 18:54:00,
2013-08-28 14:59:00,84.0,73.6,29.99,SSW,203,7.6,8.2,71,0.00,,,0.00,WUHU216HW,2013-08-28 18:59:00,
2013-08-28 15:04:00,82.2,72.9,30.00,SSW,203,3.5,12.3,73,0.02,,,0.02,WUHU216HW,2013-08-28 19:04:00,
2013-08-28 15:09:00,80.6,71.7,30.02,ENE,68,2.6,12.3,75,0.02,,,0.02,WUHU216HW,2013-08-28 19:09:00,
2013-08-28 15:14:00,79.7,71.8,30.02,East,90,0.0,8.0,77,0.06,,,0.06,WUHU216HW,2013-08-28 19:14:00,
2013-08-28 15:19:00,78.9,71.5,30.02,SSE,158,3.1,7.3,78,0.26,,,0.26,WUHU216HW,2013-08-28 19:19:00,
2013-08-28 15:24:00,78.2,70.8,30.02,South,180,3.1,7.3,78,0.37,,,0.36,WUHU216HW,2013-08-28 19:24:00,
2013-08-28 15:29:00,77.5,70.8,30.02,SSW,203,2.0,5.8,80,0.41,,,0.41,WUHU216HW,2013-08-28 19:29:00,
2013-08-28 15:34:00,77.1,70.8,30.02,SSW,203,0.0,4.2,80,0.57,,,0.53,WUHU216HW,2013-08-28 19:34:00,
2013-08-28 15:39:00,77.0,70.7,30.02,SSE,158,4.6,4.6,81,0.63,,,0.63,WUHU216HW,2013-08-28 19:39:00,
2013-08-28 15:44:00,76.6,70.7,30.02,SSE,158,1.3,4.6,82,0.69,,,0.69,WUHU216HW,2013-08-28 19:44:00,
2013-08-28 15:49:00,76.2,70.3,30.01,SSE,158,0.0,2.0,82,0.71,,,0.71,WUHU216HW,2013-08-28 19:49:00,
2013-08-28 15:54:00,75.9,70.4,30.01,South,180,0.0,3.5,83,0.73,,,0.73,WUHU216HW,2013-08-28 19:54:00,
2013-08-28 15:59:00,75.9,70.4,30.01,South,180,0.0,3.5,83,0.73,,,0.75,WUHU216HW,2013-08-28 19:59:00,
2013-08-28 16:04:00,75.7,70.5,30.00,South,180,1.7,2.6,84,0.73,,,0.75,WUHU216HW,2013-08-28 20:04:00,
2013-08-28 16:09:00,75.7,70.5,30.00,South,180,1.5,2.6,84,0.71,,,0.75,WUHU216HW,2013-08-28 20:09:00,
2013-08-28 16:14:00,75.7,70.5,30.00,South,180,0.0,1.5,84,0.61,,,0.77,WUHU216HW,2013-08-28 20:14:00,
2013-08-28 16:20:00,75.9,71.1,30.00,South,180,0.0,0.0,85,0.47,,,0.77,WUHU216HW,2013-08-28 20:20:00,
2013-08-28 16:25:00,75.9,71.1,30.00,South,180,0.6,0.8,85,0.39,,,0.79,WUHU216HW,2013-08-28 20:25:00,
2013-08-28 16:30:00,75.9,71.1,30.00,South,180,0.0,0.8,85,0.37,,,0.81,WUHU216HW,2013-08-28 20:30:00,
2013-08-28 16:35:00,75.9,71.1,29.99,South,180,0.0,0.0,85,0.24,,,0.83,WUHU216HW,2013-08-28 20:35:00,
2013-08-28 16:40:00,75.9,71.4,29.99,South,180,0.0,0.0,86,0.18,,,0.83,WUHU216HW,2013-08-28 20:40:00,
2013-08-28 16:45:00,76.1,71.6,29.99,SSE,158,0.0,0.0,86,0.12,,,0.83,WUHU216HW,2013-08-28 20:45:00,
2013-08-28 16:50:00,76.1,71.6,29.98,SSE,158,0.0,0.0,86,0.10,,,0.83,WUHU216HW,2013-08-28 20:50:00,
2013-08-28 16:55:00,76.1,71.6,29.98,SSE,158,0.0,0.0,86,0.08,,,0.83,WUHU216HW,2013-08-28 20:55:00,
2013-08-28 17:00:00,76.2,71.7,29.97,SSE,158,0.0,0.0,86,0.08,,,0.83,WUHU216HW,2013-08-28 21:00:00,
2013-08-28 17:05:00,76.4,71.9,29.98,SE,135,0.0,0.0,86,0.08,,,0.83,WUHU216HW,2013-08-28 21:05:00,
2013-08-28 17:10:00,76.6,72.5,29.97,ENE,68,0.0,2.6,87,0.06,,,0.83,WUHU216HW,2013-08-28 21:10:00,
2013-08-28 17:15:00,76.6,72.5,29.97,ENE,68,0.0,2.6,87,0.06,,,0.83,WUHU216HW,2013-08-28 21:15:00,
2013-08-28 17:20:00,76.8,72.6,29.97,ENE,68,0.0,0.0,87,0.06,,,0.83,WUHU216HW,2013-08-28 21:20:00,
2013-08-28 17:25:00,77.0,72.8,29.96,ENE,68,0.0,0.0,87,0.02,,,0.83,WUHU216HW,2013-08-28 21:25:00,
2013-08-28 17:30:00,76.8,72.6,29.96,ENE,68,0.0,0.0,87,0.00,,,0.83,WUHU216HW,2013-08-28 21:30:00,
2013-08-28 17:35:00,77.1,73.0,29.96,ENE,68,2.2,2.2,87,0.00,,,0.83,WUHU216HW,2013-08-28 21:35:00,
2013-08-28 17:40:00,77.1,73.0,29.97,ENE,68,0.0,2.2,87,0.00,,,0.83,WUHU216HW,2013-08-28 21:40:00,
2013-08-28 17:45:00,77.5,73.4,29.97,ENE,68,0.0,0.4,87,0.00,,,0.83,WUHU216HW,2013-08-28 21:45:00,
2013-08-28 17:50:00,77.7,73.5,29.96,ENE,68,2.9,2.9,87,0.00,,,0.83,WUHU216HW,2013-08-28 21:50:00,
2013-08-28 17:55:00,77.9,73.7,29.96,ENE,68,0.0,3.1,87,0.00,,,0.83,WUHU216HW,2013-08-28 21:55:00,
2013-08-28 18:00:00,78.4,74.3,29.96,ENE,68,0.0,3.1,87,0.00,,,0.83,WUHU216HW,2013-08-28 22:00:00,
2013-08-28 18:05:00,78.6,74.1,29.97,NW,315,0.0,0.0,86,0.00,,,0.83,WUHU216HW,2013-08-28 22:05:00,
2013-08-28 18:10:00,78.6,74.1,29.96,NW,315,0.0,2.4,86,0.00,,,0.83,WUHU216HW,2013-08-28 22:10:00,
2013-08-28 18:15:00,78.8,74.3,29.96,NW,315,0.0,2.4,86,0.00,,,0.83,WUHU216HW,2013-08-28 22:15:00,
2013-08-28 18:20:00,78.9,74.4,29.96,NW,315,1.5,2.9,86,0.00,,,0.83,WUHU216HW,2013-08-28 22:20:00,
2013-08-28 18:25:00,78.9,74.4,29.96,East,90,0.0,2.9,86,0.00,,,0.83,WUHU216HW,2013-08-28 22:25:00,
2013-08-28 18:30:00,78.9,74.1,29.96,East,90,0.0,2.0,85,0.00,,,0.83,WUHU216HW,2013-08-28 22:30:00,
2013-08-28 18:35:00,78.9,74.1,29.96,East,90,0.0,3.3,85,0.00,,,0.83,WUHU216HW,2013-08-28 22:35:00,
2013-08-28 18:40:00,78.9,74.1,29.96,East,90,0.0,3.3,85,0.00,,,0.83,WUHU216HW,2013-08-28 22:40:00,
2013-08-28 18:45:00,78.9,74.1,29.97,NE,45,1.7,4.2,85,0.00,,,0.83,WUHU216HW,2013-08-28 22:45:00,
2013-08-28 18:51:00,78.9,74.1,29.97,ENE,68,3.5,5.1,85,0.00,,,0.83,WUHU216HW,2013-08-28 22:51:00,
2013-08-28 18:56:00,78.6,73.7,29.97,ENE,68,4.2,5.1,85,0.00,,,0.83,WUHU216HW,2013-08-28 22:56:00,
2013-08-28 19:01:00,78.6,73.7,29.97,ENE,68,0.0,5.1,84,0.00,,,0.83,WUHU216HW,2013-08-28 23:01:00,
2013-08-28 19:06:00,78.6,73.7,29.96,ENE,68,1.5,4.9,85,0.00,,,0.83,WUHU216HW,2013-08-28 23:06:00,
2013-08-28 19:11:00,78.6,73.7,29.96,ENE,68,2.9,4.0,85,0.00,,,0.83,WUHU216HW,2013-08-28 23:11:00,
2013-08-28 19:16:00,78.6,73.7,29.97,ENE,68,0.0,4.0,85,0.00,,,0.83,WUHU216HW,2013-08-28 23:16:00,
2013-08-28 19:21:00,78.6,73.7,29.97,ENE,68,2.2,2.9,85,0.00,,,0.83,WUHU216HW,2013-08-28 23:21:00,
2013-08-28 19:26:00,78.6,73.7,29.97,ENE,68,0.0,2.9,85,0.00,,,0.83,WUHU216HW,2013-08-28 23:26:00,
2013-08-28 19:31:00,78.9,74.1,29.97,ENE,68,0.0,2.9,85,0.00,,,0.83,WUHU216HW,2013-08-28 23:31:00,
2013-08-28 19:36:00,79.3,74.0,29.97,ENE,68,0.0,2.6,84,0.00,,,0.83,WUHU216HW,2013-08-28 23:36:00,
2013-08-28 19:41:00,79.5,74.2,29.97,ENE,68,0.0,5.5,84,0.00,,,0.83,WUHU216HW,2013-08-28 23:41:00,
2013-08-28 19:46:00,79.3,74.0,29.97,ENE,68,0.0,5.5,84,0.00,,,0.83,WUHU216HW,2013-08-28 23:46:00,
2013-08-28 19:51:00,78.9,73.7,29.96,ENE,68,0.4,2.2,84,0.00,,,0.83,WUHU216HW,2013-08-28 23:51:00,
2013-08-28 19:56:00,78.6,73.4,29.96,ENE,68,2.4,3.5,84,0.00,,,0.83,WUHU216HW,2013-08-28 23:56:00,
2013-08-28 20:01:00,78.6,73.4,29.96,ENE,68,1.7,3.5,84,0.00,,,0.83,WUHU216HW,2013-08-29 00:01:00,
2013-08-28 20:06:00,78.4,73.2,29.96,ENE,68,1.3,2.9,84,0.00,,,0.83,WUHU216HW,2013-08-29 00:06:00,
2013-08-28 20:11:00,78.2,73.0,29.96,ENE,68,0.6,1.7,84,0.00,,,0.83,WUHU216HW,2013-08-29 00:11:00,
2013-08-28 20:16:00,78.0,72.8,29.96,ENE,68,0.0,1.5,84,0.00,,,0.83,WUHU216HW,2013-08-29 00:16:00,
2013-08-28 20:21:00,77.9,72.6,29.97,ENE,68,1.5,1.5,84,0.00,,,0.83,WUHU216HW,2013-08-29 00:21:00,
2013-08-28 20:26:00,77.7,72.6,29.97,ENE,68,0.0,1.5,84,0.00,,,0.83,WUHU216HW,2013-08-29 00:26:00,
2013-08-28 20:31:00,77.7,72.5,29.97,ENE,68,0.0,1.1,84,0.00,,,0.83,WUHU216HW,2013-08-29 00:31:00,
2013-08-28 20:36:00,77.7,72.5,29.97,ENE,68,0.0,2.0,84,0.00,,,0.83,WUHU216HW,2013-08-29 00:36:00,
2013-08-28 20:41:00,77.7,72.5,29.98,ENE,68,0.0,2.0,84,0.00,,,0.83,WUHU216HW,2013-08-29 00:41:00,
2013-08-28 20:46:00,77.7,72.5,29.98,ENE,68,0.0,0.0,84,0.00,,,0.83,WUHU216HW,2013-08-29 00:46:00,
2013-08-28 20:51:00,77.7,72.5,29.98,ENE,68,0.0,0.0,84,0.00,,,0.83,WUHU216HW,2013-08-29 00:51:00,
2013-08-28 20:56:00,77.7,72.5,29.98,ENE,68,0.0,0.0,84,0.00,,,0.83,WUHU216HW,2013-08-29 00:56:00,
2013-08-28 21:01:00,77.5,72.3,29.99,ENE,68,0.0,0.0,84,0.00,,,0.83,WUHU216HW,2013-08-29 01:01:00,
2013-08-28 21:06:00,77.5,72.3,29.99,ENE,68,0.0,1.3,84,0.00,,,0.83,WUHU216HW,2013-08-29 01:06:00,
2013-08-28 21:11:00,77.5,72.3,29.99,ENE,68,0.0,1.3,84,0.00,,,0.83,WUHU216HW,2013-08-29 01:11:00,
2013-08-28 21:16:00,77.5,72.3,29.99,North,0,0.0,3.3,84,0.00,,,0.83,WUHU216HW,2013-08-29 01:16:00,
2013-08-28 21:21:00,77.3,71.7,29.99,East,90,1.3,3.3,83,0.00,,,0.83,WUHU216HW,2013-08-29 01:21:00,
2013-08-28 21:26:00,77.3,71.7,29.99,ENE,68,5.1,5.1,83,0.00,,,0.83,WUHU216HW,2013-08-29 01:26:00,
2013-08-28 21:31:00,77.3,71.7,29.99,East,90,2.6,5.1,83,0.00,,,0.83,WUHU216HW,2013-08-29 01:31:00,
2013-08-28 21:36:00,77.3,71.7,29.99,East,90,0.4,3.3,83,0.00,,,0.83,WUHU216HW,2013-08-29 01:36:00,
2013-08-28 21:41:00,77.3,71.7,29.99,East,90,0.0,3.3,83,0.00,,,0.83,WUHU216HW,2013-08-29 01:41:00,
2013-08-28 21:46:00,77.3,71.4,29.99,ENE,68,0.8,2.4,82,0.00,,,0.83,WUHU216HW,2013-08-29 01:46:00,
2013-08-28 21:51:00,77.3,71.4,29.99,ENE,68,2.6,3.1,82,0.00,,,0.83,WUHU216HW,2013-08-29 01:51:00,
2013-08-28 21:56:00,77.1,71.2,30.00,ENE,68,1.1,3.5,82,0.00,,,0.83,WUHU216HW,2013-08-29 01:56:00,
2013-08-28 22:01:00,77.1,71.2,30.00,ENE,68,2.0,3.5,82,0.00,,,0.83,WUHU216HW,2013-08-29 02:01:00,
2013-08-28 22:06:00,77.1,71.2,29.99,North,0,0.0,3.3,82,0.00,,,0.83,WUHU216HW,2013-08-29 02:06:00,
2013-08-28 22:11:00,77.0,71.4,29.99,ENE,68,1.3,3.3,83,0.00,,,0.83,WUHU216HW,2013-08-29 02:11:00,
2013-08-28 22:16:00,76.8,70.8,29.99,ENE,68,0.0,2.6,82,0.00,,,0.83,WUHU216HW,2013-08-29 02:16:00,
2013-08-28 22:21:00,76.8,70.8,30.00,ENE,68,0.0,1.3,82,0.00,,,0.83,WUHU216HW,2013-08-29 02:21:00,
2013-08-28 22:27:00,76.8,70.8,30.00,ENE,68,2.0,2.0,82,0.00,,,0.83,WUHU216HW,2013-08-29 02:27:00,
2013-08-28 22:32:00,76.8,70.8,30.00,ENE,68,1.7,2.0,82,0.00,,,0.83,WUHU216HW,2013-08-29 02:32:00,
2013-08-28 22:37:00,76.6,71.0,30.01,ENE,68,0.0,1.7,83,0.00,,,0.83,WUHU216HW,2013-08-29 02:37:00,
2013-08-28 22:42:00,76.4,70.9,30.01,ENE,68,0.0,0.8,83,0.00,,,0.83,WUHU216HW,2013-08-29 02:42:00,
2013-08-28 22:47:00,76.2,70.7,30.01,ENE,68,0.0,0.0,83,0.00,,,0.83,WUHU216HW,2013-08-29 02:47:00,
2013-08-28 22:52:00,76.1,70.9,30.01,ENE,68,0.0,0.0,84,0.00,,,0.83,WUHU216HW,2013-08-29 02:52:00,
2013-08-28 22:57:00,75.9,70.7,30.01,ENE,68,0.0,0.0,84,0.00,,,0.83,WUHU216HW,2013-08-29 02:57:00,
2013-08-28 23:02:00,75.7,70.5,30.01,ENE,68,0.0,0.0,84,0.00,,,0.83,WUHU216HW,2013-08-29 03:02:00,
2013-08-28 23:07:00,75.3,70.2,30.01,ENE,68,0.0,0.0,84,0.00,,,0.83,WUHU216HW,2013-08-29 03:07:00,
2013-08-28 23:12:00,75.3,70.2,30.01,ENE,68,0.0,0.0,84,0.00,,,0.83,WUHU216HW,2013-08-29 03:12:00,
2013-08-28 23:17:00,75.3,70.5,30.01,ENE,68,0.0,0.0,85,0.00,,,0.83,WUHU216HW,2013-08-29 03:17:00,
2013-08-28 23:22:00,75.2,70.4,30.01,ENE,68,0.0,0.0,85,0.00,,,0.83,WUHU216HW,2013-08-29 03:22:00,
2013-08-28 23:27:00,75.2,70.4,30.02,ENE,68,0.0,0.0,85,0.00,,,0.83,WUHU216HW,2013-08-29 03:27:00,
2013-08-28 23:32:00,75.0,70.2,30.02,ENE,68,0.0,0.0,85,0.00,,,0.83,WUHU216HW,2013-08-29 03:32:00,
2013-08-28 23:37:00,75.0,70.2,30.02,ENE,68,0.0,0.0,85,0.00,,,0.83,WUHU216HW,2013-08-29 03:37:00,
2013-08-28 23:42:00,75.0,70.5,30.01,ENE,68,0.0,0.0,86,0.00,,,0.83,WUHU216HW,2013-08-29 03:42:00,
2013-08-28 23:47:00,74.8,70.2,30.02,ENE,68,0.0,0.0,85,0.00,,,0.83,WUHU216HW,2013-08-29 03:47:00,
2013-08-28 23:52:00,74.8,70.4,30.02,ENE,68,0.0,0.0,86,0.00,,,0.83,WUHU216HW,2013-08-29 03:52:00,
2013-08-28 23:57:00,74.8,70.4,30.02,ENE,68,0.0,0.0,86,0.00,,,0.83,WUHU216HW,2013-08-29 03:57:00,